sensor_id;sensor_type;location;lat;lon;timestamp;temperature;humidity
21335;DHT22;10826;52.536;13.432;2023-04-15T00:00:59;10.90;70.00
21335;DHT22;10826;52.536;13.432;2023-04-15T00:03:46;10.90;70.00
21335;DHT22;10826;52.536;13.432;2023-04-15T00:06:32;10.90;70.00
21335;DHT22;10826;52.536;13.432;2023-04-15T00:09:19;10.90;70.00
21335;DHT22;10826;52.536;13.432;2023-04-15T00:12:05;11.00;70.10
21335;DHT22;10826;52.536;13.432;2023-04-15T00:14:52;10.90;70.00
21335;DHT22;10826;52.536;13.432;2023-04-15T00:17:39;10.90;70.00
21335;DHT22;10826;52.536;13.432;2023-04-15T00:20:25;10.90;70.00
21335;DHT22;10826;52.536;13.432;2023-04-15T00:23:11;10.90;70.00
21335;DHT22;10826;52.536;13.432;2023-04-15T00:25:58;10.90;69.90
21335;DHT22;10826;52.536;13.432;2023-04-15T00:28:49;10.90;69.90
21335;DHT22;10826;52.536;13.432;2023-04-15T00:31:35;10.90;69.90
21335;DHT22;10826;52.536;13.432;2023-04-15T00:34:21;10.90;70.00
21335;DHT22;10826;52.536;13.432;2023-04-15T00:37:08;10.90;70.00
21335;DHT22;10826;52.536;13.432;2023-04-15T00:39:55;10.90;70.00
21335;DHT22;10826;52.536;13.432;2023-04-15T00:42:45;10.90;70.00
21335;DHT22;10826;52.536;13.432;2023-04-15T00:45:32;10.90;69.80
21335;DHT22;10826;52.536;13.432;2023-04-15T00:48:18;10.90;69.90
21335;DHT22;10826;52.536;13.432;2023-04-15T00:51:05;10.90;69.90
21335;DHT22;10826;52.536;13.432;2023-04-15T00:53:52;10.90;69.90
21335;DHT22;10826;52.536;13.432;2023-04-15T00:56:39;10.90;69.80
21335;DHT22;10826;52.536;13.432;2023-04-15T00:59:26;10.90;69.90
21335;DHT22;10826;52.536;13.432;2023-04-15T01:02:15;10.90;70.50
21335;DHT22;10826;52.536;13.432;2023-04-15T01:05:02;10.90;69.70
21335;DHT22;10826;52.536;13.432;2023-04-15T01:07:49;10.90;69.70
21335;DHT22;10826;52.536;13.432;2023-04-15T01:10:35;10.90;69.80
21335;DHT22;10826;52.536;13.432;2023-04-15T01:13:23;10.90;70.00
21335;DHT22;10826;52.536;13.432;2023-04-15T01:16:10;10.90;69.90
21335;DHT22;10826;52.536;13.432;2023-04-15T01:18:56;10.90;69.90
21335;DHT22;10826;52.536;13.432;2023-04-15T01:21:43;10.90;69.80
21335;DHT22;10826;52.536;13.432;2023-04-15T01:24:31;10.90;70.50
21335;DHT22;10826;52.536;13.432;2023-04-15T01:27:26;10.90;69.80
21335;DHT22;10826;52.536;13.432;2023-04-15T01:30:12;10.90;69.80
21335;DHT22;10826;52.536;13.432;2023-04-15T01:32:58;10.90;69.90
21335;DHT22;10826;52.536;13.432;2023-04-15T01:35:44;10.90;69.90
21335;DHT22;10826;52.536;13.432;2023-04-15T01:38:31;10.90;70.00
21335;DHT22;10826;52.536;13.432;2023-04-15T01:41:24;10.90;70.00
21335;DHT22;10826;52.536;13.432;2023-04-15T01:44:11;10.90;70.00
21335;DHT22;10826;52.536;13.432;2023-04-15T01:46:57;10.90;69.90
21335;DHT22;10826;52.536;13.432;2023-04-15T01:49:43;10.90;69.90
21335;DHT22;10826;52.536;13.432;2023-04-15T01:52:29;10.90;69.80
21335;DHT22;10826;52.536;13.432;2023-04-15T01:55:15;10.90;69.90
21335;DHT22;10826;52.536;13.432;2023-04-15T01:58:02;10.90;69.80
21335;DHT22;10826;52.536;13.432;2023-04-15T02:00:48;10.90;69.90
21335;DHT22;10826;52.536;13.432;2023-04-15T02:03:35;10.90;70.00
21335;DHT22;10826;52.536;13.432;2023-04-15T02:06:22;10.90;70.00
21335;DHT22;10826;52.536;13.432;2023-04-15T02:09:08;10.90;70.00
21335;DHT22;10826;52.536;13.432;2023-04-15T02:11:55;10.90;69.90
21335;DHT22;10826;52.536;13.432;2023-04-15T02:14:41;10.90;69.90
21335;DHT22;10826;52.536;13.432;2023-04-15T02:17:27;10.90;69.80
21335;DHT22;10826;52.536;13.432;2023-04-15T02:20:13;10.90;69.80
21335;DHT22;10826;52.536;13.432;2023-04-15T02:22:59;10.90;69.80
21335;DHT22;10826;52.536;13.432;2023-04-15T02:25:46;10.90;69.70
21335;DHT22;10826;52.536;13.432;2023-04-15T02:28:32;10.90;69.70
21335;DHT22;10826;52.536;13.432;2023-04-15T02:31:18;10.90;69.70
21335;DHT22;10826;52.536;13.432;2023-04-15T02:34:04;10.90;69.80
21335;DHT22;10826;52.536;13.432;2023-04-15T02:36:50;10.90;69.70
21335;DHT22;10826;52.536;13.432;2023-04-15T02:39:39;10.90;69.70
21335;DHT22;10826;52.536;13.432;2023-04-15T02:42:25;10.90;69.60
21335;DHT22;10826;52.536;13.432;2023-04-15T02:45:13;10.90;69.70
21335;DHT22;10826;52.536;13.432;2023-04-15T02:47:59;10.90;69.70
21335;DHT22;10826;52.536;13.432;2023-04-15T02:50:50;10.90;69.90
21335;DHT22;10826;52.536;13.432;2023-04-15T02:53:36;10.90;70.00
21335;DHT22;10826;52.536;13.432;2023-04-15T02:56:22;10.90;70.00
21335;DHT22;10826;52.536;13.432;2023-04-15T02:59:08;10.90;70.10
21335;DHT22;10826;52.536;13.432;2023-04-15T03:01:58;10.90;70.20
21335;DHT22;10826;52.536;13.432;2023-04-15T03:04:48;10.90;70.10
21335;DHT22;10826;52.536;13.432;2023-04-15T03:07:34;10.90;70.20
21335;DHT22;10826;52.536;13.432;2023-04-15T03:10:22;10.90;70.20
21335;DHT22;10826;52.536;13.432;2023-04-15T03:13:08;10.90;70.10
21335;DHT22;10826;52.536;13.432;2023-04-15T03:15:53;10.90;70.10
21335;DHT22;10826;52.536;13.432;2023-04-15T03:18:39;10.90;70.10
21335;DHT22;10826;52.536;13.432;2023-04-15T03:21:25;10.90;70.20
21335;DHT22;10826;52.536;13.432;2023-04-15T03:24:12;11.00;70.10
21335;DHT22;10826;52.536;13.432;2023-04-15T03:26:58;11.00;70.20
21335;DHT22;10826;52.536;13.432;2023-04-15T03:29:44;11.00;70.20
21335;DHT22;10826;52.536;13.432;2023-04-15T03:32:30;11.00;70.10
21335;DHT22;10826;52.536;13.432;2023-04-15T03:35:16;11.00;70.00
21335;DHT22;10826;52.536;13.432;2023-04-15T03:38:02;11.00;70.10
21335;DHT22;10826;52.536;13.432;2023-04-15T03:40:48;11.00;70.10
21335;DHT22;10826;52.536;13.432;2023-04-15T03:43:34;11.00;70.10
21335;DHT22;10826;52.536;13.432;2023-04-15T03:46:20;11.00;70.10
21335;DHT22;10826;52.536;13.432;2023-04-15T03:49:20;11.10;70.40
21335;DHT22;10826;52.536;13.432;2023-04-15T03:52:07;11.10;70.20
21335;DHT22;10826;52.536;13.432;2023-04-15T03:54:53;11.10;70.20
21335;DHT22;10826;52.536;13.432;2023-04-15T03:57:41;11.10;70.30
21335;DHT22;10826;52.536;13.432;2023-04-15T04:00:27;11.10;70.20
21335;DHT22;10826;52.536;13.432;2023-04-15T04:03:14;11.10;70.30
21335;DHT22;10826;52.536;13.432;2023-04-15T04:06:01;11.10;70.30
21335;DHT22;10826;52.536;13.432;2023-04-15T04:08:47;11.10;70.20
21335;DHT22;10826;52.536;13.432;2023-04-15T04:11:32;11.10;70.20
21335;DHT22;10826;52.536;13.432;2023-04-15T04:14:18;11.10;70.20
21335;DHT22;10826;52.536;13.432;2023-04-15T04:17:05;11.10;70.20
21335;DHT22;10826;52.536;13.432;2023-04-15T04:19:51;11.20;70.10
21335;DHT22;10826;52.536;13.432;2023-04-15T04:22:38;11.10;70.10
21335;DHT22;10826;52.536;13.432;2023-04-15T04:25:25;11.10;70.00
21335;DHT22;10826;52.536;13.432;2023-04-15T04:28:11;11.20;70.10
21335;DHT22;10826;52.536;13.432;2023-04-15T04:30:57;11.20;70.10
21335;DHT22;10826;52.536;13.432;2023-04-15T04:33:43;11.10;70.20
21335;DHT22;10826;52.536;13.432;2023-04-15T04:36:29;11.20;71.00
21335;DHT22;10826;52.536;13.432;2023-04-15T04:39:22;11.10;70.30
21335;DHT22;10826;52.536;13.432;2023-04-15T04:42:08;11.20;70.20
21335;DHT22;10826;52.536;13.432;2023-04-15T04:44:54;11.20;70.20
21335;DHT22;10826;52.536;13.432;2023-04-15T04:47:40;11.20;70.20
21335;DHT22;10826;52.536;13.432;2023-04-15T04:50:25;11.20;70.10
21335;DHT22;10826;52.536;13.432;2023-04-15T04:53:11;11.20;70.10
21335;DHT22;10826;52.536;13.432;2023-04-15T04:55:57;11.20;70.10
21335;DHT22;10826;52.536;13.432;2023-04-15T04:58:45;11.30;70.20
21335;DHT22;10826;52.536;13.432;2023-04-15T05:01:31;11.30;70.20
21335;DHT22;10826;52.536;13.432;2023-04-15T05:04:17;11.30;70.30
21335;DHT22;10826;52.536;13.432;2023-04-15T05:07:03;11.30;70.40
21335;DHT22;10826;52.536;13.432;2023-04-15T05:09:55;11.30;70.30
21335;DHT22;10826;52.536;13.432;2023-04-15T05:12:41;11.30;70.30
21335;DHT22;10826;52.536;13.432;2023-04-15T05:15:27;11.40;70.30
21335;DHT22;10826;52.536;13.432;2023-04-15T05:18:13;11.40;70.20
21335;DHT22;10826;52.536;13.432;2023-04-15T05:20:59;11.40;70.20
21335;DHT22;10826;52.536;13.432;2023-04-15T05:23:46;11.40;70.30
21335;DHT22;10826;52.536;13.432;2023-04-15T05:26:31;11.40;70.40
21335;DHT22;10826;52.536;13.432;2023-04-15T05:29:17;11.40;70.50
21335;DHT22;10826;52.536;13.432;2023-04-15T05:32:04;11.40;70.50
21335;DHT22;10826;52.536;13.432;2023-04-15T05:34:50;11.50;70.50
21335;DHT22;10826;52.536;13.432;2023-04-15T05:37:36;11.50;70.50
21335;DHT22;10826;52.536;13.432;2023-04-15T05:40:22;11.50;70.80
21335;DHT22;10826;52.536;13.432;2023-04-15T05:43:08;11.50;70.70
21335;DHT22;10826;52.536;13.432;2023-04-15T05:45:55;11.50;70.60
21335;DHT22;10826;52.536;13.432;2023-04-15T05:48:41;11.60;70.40
21335;DHT22;10826;52.536;13.432;2023-04-15T05:51:27;11.70;70.40
21335;DHT22;10826;52.536;13.432;2023-04-15T05:54:13;11.70;70.30
21335;DHT22;10826;52.536;13.432;2023-04-15T05:56:59;11.80;70.20
21335;DHT22;10826;52.536;13.432;2023-04-15T05:59:45;11.90;70.20
21335;DHT22;10826;52.536;13.432;2023-04-15T06:02:31;11.90;70.00
21335;DHT22;10826;52.536;13.432;2023-04-15T06:05:17;11.90;69.70
21335;DHT22;10826;52.536;13.432;2023-04-15T06:08:03;11.90;69.70
21335;DHT22;10826;52.536;13.432;2023-04-15T06:10:50;12.00;69.40
21335;DHT22;10826;52.536;13.432;2023-04-15T06:13:36;12.10;69.30
21335;DHT22;10826;52.536;13.432;2023-04-15T06:16:22;12.20;69.10
21335;DHT22;10826;52.536;13.432;2023-04-15T06:19:09;12.30;69.10
21335;DHT22;10826;52.536;13.432;2023-04-15T06:21:57;12.30;68.70
21335;DHT22;10826;52.536;13.432;2023-04-15T06:24:43;12.40;68.60
21335;DHT22;10826;52.536;13.432;2023-04-15T06:27:29;12.40;68.50
21335;DHT22;10826;52.536;13.432;2023-04-15T06:30:16;12.50;67.80
21335;DHT22;10826;52.536;13.432;2023-04-15T06:33:02;12.50;67.80
21335;DHT22;10826;52.536;13.432;2023-04-15T06:35:50;12.60;67.90
21335;DHT22;10826;52.536;13.432;2023-04-15T06:38:39;12.70;68.00
21335;DHT22;10826;52.536;13.432;2023-04-15T06:41:24;12.80;67.30
21335;DHT22;10826;52.536;13.432;2023-04-15T06:44:10;12.80;66.20
21335;DHT22;10826;52.536;13.432;2023-04-15T06:46:57;12.80;65.90
21335;DHT22;10826;52.536;13.432;2023-04-15T06:49:43;12.90;66.00
21335;DHT22;10826;52.536;13.432;2023-04-15T06:52:29;12.80;65.70
21335;DHT22;10826;52.536;13.432;2023-04-15T06:55:16;12.90;65.30
21335;DHT22;10826;52.536;13.432;2023-04-15T06:58:01;12.90;65.20
21335;DHT22;10826;52.536;13.432;2023-04-15T07:00:47;13.00;65.10
21335;DHT22;10826;52.536;13.432;2023-04-15T07:03:33;13.00;64.90
21335;DHT22;10826;52.536;13.432;2023-04-15T07:06:20;12.90;64.70
21335;DHT22;10826;52.536;13.432;2023-04-15T07:09:06;12.90;64.70
21335;DHT22;10826;52.536;13.432;2023-04-15T07:11:53;12.90;64.90
21335;DHT22;10826;52.536;13.432;2023-04-15T07:14:39;12.80;65.00
21335;DHT22;10826;52.536;13.432;2023-04-15T07:17:25;12.80;65.20
21335;DHT22;10826;52.536;13.432;2023-04-15T07:20:11;12.80;65.30
21335;DHT22;10826;52.536;13.432;2023-04-15T07:22:58;12.70;65.30
21335;DHT22;10826;52.536;13.432;2023-04-15T07:25:44;12.70;65.70
21335;DHT22;10826;52.536;13.432;2023-04-15T07:28:32;12.70;65.70
21335;DHT22;10826;52.536;13.432;2023-04-15T07:31:18;12.80;66.10
21335;DHT22;10826;52.536;13.432;2023-04-15T07:34:06;12.80;66.60
21335;DHT22;10826;52.536;13.432;2023-04-15T07:36:52;12.80;66.70
21335;DHT22;10826;52.536;13.432;2023-04-15T07:39:45;12.80;66.60
21335;DHT22;10826;52.536;13.432;2023-04-15T07:42:33;12.90;66.40
21335;DHT22;10826;52.536;13.432;2023-04-15T07:45:21;12.90;66.10
21335;DHT22;10826;52.536;13.432;2023-04-15T07:48:19;12.90;66.20
21335;DHT22;10826;52.536;13.432;2023-04-15T07:51:05;12.90;65.80
21335;DHT22;10826;52.536;13.432;2023-04-15T07:53:51;13.00;65.90
21335;DHT22;10826;52.536;13.432;2023-04-15T07:56:37;13.00;65.50
21335;DHT22;10826;52.536;13.432;2023-04-15T07:59:23;13.00;65.70
21335;DHT22;10826;52.536;13.432;2023-04-15T08:02:13;13.00;66.10
21335;DHT22;10826;52.536;13.432;2023-04-15T08:04:59;13.00;65.80
21335;DHT22;10826;52.536;13.432;2023-04-15T08:07:47;13.00;65.60
21335;DHT22;10826;52.536;13.432;2023-04-15T08:10:34;13.00;65.40
21335;DHT22;10826;52.536;13.432;2023-04-15T08:13:20;12.90;65.30
21335;DHT22;10826;52.536;13.432;2023-04-15T08:16:21;12.90;65.20
21335;DHT22;10826;52.536;13.432;2023-04-15T08:19:09;13.00;64.90
21335;DHT22;10826;52.536;13.432;2023-04-15T08:21:56;13.00;65.20
21335;DHT22;10826;52.536;13.432;2023-04-15T08:24:49;13.10;65.70
21335;DHT22;10826;52.536;13.432;2023-04-15T08:27:35;13.10;65.70
21335;DHT22;10826;52.536;13.432;2023-04-15T08:30:22;13.20;65.60
21335;DHT22;10826;52.536;13.432;2023-04-15T08:33:08;13.30;65.40
21335;DHT22;10826;52.536;13.432;2023-04-15T08:35:55;13.40;65.20
21335;DHT22;10826;52.536;13.432;2023-04-15T08:38:41;13.40;64.70
21335;DHT22;10826;52.536;13.432;2023-04-15T08:42:15;13.50;64.40
21335;DHT22;10826;52.536;13.432;2023-04-15T08:44:47;13.60;63.80
21335;DHT22;10826;52.536;13.432;2023-04-15T08:47:37;13.60;63.20
21335;DHT22;10826;52.536;13.432;2023-04-15T08:50:31;13.60;63.10
21335;DHT22;10826;52.536;13.432;2023-04-15T08:53:19;13.60;63.50
21335;DHT22;10826;52.536;13.432;2023-04-15T08:56:06;13.60;63.00
21335;DHT22;10826;52.536;13.432;2023-04-15T08:58:55;13.60;62.60
21335;DHT22;10826;52.536;13.432;2023-04-15T09:02:00;13.60;62.90
21335;DHT22;10826;52.536;13.432;2023-04-15T09:05:13;13.60;62.70
21335;DHT22;10826;52.536;13.432;2023-04-15T09:08:04;13.50;62.80
21335;DHT22;10826;52.536;13.432;2023-04-15T09:10:50;13.50;63.30
21335;DHT22;10826;52.536;13.432;2023-04-15T09:13:36;13.50;62.70
21335;DHT22;10826;52.536;13.432;2023-04-15T09:16:22;13.50;63.00
21335;DHT22;10826;52.536;13.432;2023-04-15T09:19:22;13.50;63.40
21335;DHT22;10826;52.536;13.432;2023-04-15T09:22:09;13.50;63.20
21335;DHT22;10826;52.536;13.432;2023-04-15T09:24:55;13.50;63.20
21335;DHT22;10826;52.536;13.432;2023-04-15T09:27:48;13.60;63.10
21335;DHT22;10826;52.536;13.432;2023-04-15T09:30:35;13.70;62.70
21335;DHT22;10826;52.536;13.432;2023-04-15T09:33:22;13.70;62.50
21335;DHT22;10826;52.536;13.432;2023-04-15T09:36:08;13.70;62.40
21335;DHT22;10826;52.536;13.432;2023-04-15T09:38:56;13.70;62.50
21335;DHT22;10826;52.536;13.432;2023-04-15T09:41:44;13.70;62.90
21335;DHT22;10826;52.536;13.432;2023-04-15T09:44:30;13.70;62.70
21335;DHT22;10826;52.536;13.432;2023-04-15T09:47:31;13.80;62.40
21335;DHT22;10826;52.536;13.432;2023-04-15T09:50:19;13.80;62.20
21335;DHT22;10826;52.536;13.432;2023-04-15T09:53:10;13.70;62.20
21335;DHT22;10826;52.536;13.432;2023-04-15T09:56:02;13.70;63.40
21335;DHT22;10826;52.536;13.432;2023-04-15T09:58:55;13.70;62.80
21335;DHT22;10826;52.536;13.432;2023-04-15T10:01:41;13.60;63.10
21335;DHT22;10826;52.536;13.432;2023-04-15T10:04:28;13.60;62.90
21335;DHT22;10826;52.536;13.432;2023-04-15T10:07:16;13.60;63.20
21335;DHT22;10826;52.536;13.432;2023-04-15T10:10:05;13.60;63.60
21335;DHT22;10826;52.536;13.432;2023-04-15T10:12:53;13.60;63.60
21335;DHT22;10826;52.536;13.432;2023-04-15T10:15:42;13.60;63.90
21335;DHT22;10826;52.536;13.432;2023-04-15T10:18:34;13.70;64.60
21335;DHT22;10826;52.536;13.432;2023-04-15T10:21:23;13.70;64.30
21335;DHT22;10826;52.536;13.432;2023-04-15T10:24:09;13.80;64.30
21335;DHT22;10826;52.536;13.432;2023-04-15T10:26:58;13.80;64.10
21335;DHT22;10826;52.536;13.432;2023-04-15T10:29:45;13.90;64.40
21335;DHT22;10826;52.536;13.432;2023-04-15T10:32:35;13.90;64.00
21335;DHT22;10826;52.536;13.432;2023-04-15T10:35:22;14.00;64.00
21335;DHT22;10826;52.536;13.432;2023-04-15T10:38:38;14.00;63.80
21335;DHT22;10826;52.536;13.432;2023-04-15T10:41:33;14.00;63.80
21335;DHT22;10826;52.536;13.432;2023-04-15T10:44:20;14.10;64.00
21335;DHT22;10826;52.536;13.432;2023-04-15T10:47:15;14.00;63.50
21335;DHT22;10826;52.536;13.432;2023-04-15T10:50:06;14.00;63.80
21335;DHT22;10826;52.536;13.432;2023-04-15T10:52:52;14.00;64.10
21335;DHT22;10826;52.536;13.432;2023-04-15T10:55:38;14.00;64.30
21335;DHT22;10826;52.536;13.432;2023-04-15T10:58:25;14.00;64.80
21335;DHT22;10826;52.536;13.432;2023-04-15T11:01:49;13.90;65.00
21335;DHT22;10826;52.536;13.432;2023-04-15T11:04:58;13.90;65.00
21335;DHT22;10826;52.536;13.432;2023-04-15T11:13:22;13.80;65.50
21335;DHT22;10826;52.536;13.432;2023-04-15T11:16:11;13.80;65.60
21335;DHT22;10826;52.536;13.432;2023-04-15T11:18:58;13.70;66.10
21335;DHT22;10826;52.536;13.432;2023-04-15T11:21:44;13.60;66.30
21335;DHT22;10826;52.536;13.432;2023-04-15T11:24:32;13.50;66.70
21335;DHT22;10826;52.536;13.432;2023-04-15T11:27:20;13.50;66.80
21335;DHT22;10826;52.536;13.432;2023-04-15T11:30:23;13.50;66.70
21335;DHT22;10826;52.536;13.432;2023-04-15T11:33:13;13.50;66.50
21335;DHT22;10826;52.536;13.432;2023-04-15T11:36:02;13.50;67.10
21335;DHT22;10826;52.536;13.432;2023-04-15T11:38:49;13.40;66.80
21335;DHT22;10826;52.536;13.432;2023-04-15T11:41:35;13.40;66.70
21335;DHT22;10826;52.536;13.432;2023-04-15T11:44:21;13.40;66.80
21335;DHT22;10826;52.536;13.432;2023-04-15T11:47:25;13.40;67.20
21335;DHT22;10826;52.536;13.432;2023-04-15T11:50:19;13.30;67.20
21335;DHT22;10826;52.536;13.432;2023-04-15T11:53:11;13.30;67.30
21335;DHT22;10826;52.536;13.432;2023-04-15T11:56:01;13.30;67.70
21335;DHT22;10826;52.536;13.432;2023-04-15T11:58:51;13.30;67.80
21335;DHT22;10826;52.536;13.432;2023-04-15T12:01:40;13.30;67.90
21335;DHT22;10826;52.536;13.432;2023-04-15T12:04:31;13.30;68.00
21335;DHT22;10826;52.536;13.432;2023-04-15T12:07:17;13.30;68.20
21335;DHT22;10826;52.536;13.432;2023-04-15T12:10:03;13.30;68.50
21335;DHT22;10826;52.536;13.432;2023-04-15T12:12:51;13.40;68.60
21335;DHT22;10826;52.536;13.432;2023-04-15T12:15:39;13.40;68.60
21335;DHT22;10826;52.536;13.432;2023-04-15T12:18:26;13.40;68.60
21335;DHT22;10826;52.536;13.432;2023-04-15T12:21:13;13.50;68.50
21335;DHT22;10826;52.536;13.432;2023-04-15T12:24:05;13.50;68.80
21335;DHT22;10826;52.536;13.432;2023-04-15T12:26:54;13.50;68.60
21335;DHT22;10826;52.536;13.432;2023-04-15T12:29:48;13.60;68.80
21335;DHT22;10826;52.536;13.432;2023-04-15T12:32:38;13.60;69.00
21335;DHT22;10826;52.536;13.432;2023-04-15T12:35:28;13.70;68.80
21335;DHT22;10826;52.536;13.432;2023-04-15T12:38:14;13.70;68.40
21335;DHT22;10826;52.536;13.432;2023-04-15T12:41:01;13.80;68.40
21335;DHT22;10826;52.536;13.432;2023-04-15T12:43:47;13.80;68.20
21335;DHT22;10826;52.536;13.432;2023-04-15T12:46:38;13.80;68.20
21335;DHT22;10826;52.536;13.432;2023-04-15T12:49:33;13.80;68.20
21335;DHT22;10826;52.536;13.432;2023-04-15T12:52:22;13.90;69.00
21335;DHT22;10826;52.536;13.432;2023-04-15T12:55:09;13.90;68.10
21335;DHT22;10826;52.536;13.432;2023-04-15T12:58:02;14.00;68.10
21335;DHT22;10826;52.536;13.432;2023-04-15T13:00:49;14.00;67.80
21335;DHT22;10826;52.536;13.432;2023-04-15T13:03:39;14.00;67.70
21335;DHT22;10826;52.536;13.432;2023-04-15T13:06:28;14.00;67.50
21335;DHT22;10826;52.536;13.432;2023-04-15T13:09:17;14.00;67.60
21335;DHT22;10826;52.536;13.432;2023-04-15T13:12:03;14.00;67.40
21335;DHT22;10826;52.536;13.432;2023-04-15T13:14:52;14.00;67.60
21335;DHT22;10826;52.536;13.432;2023-04-15T13:17:43;14.00;67.50
21335;DHT22;10826;52.536;13.432;2023-04-15T13:20:29;14.00;67.40
21335;DHT22;10826;52.536;13.432;2023-04-15T13:23:19;13.90;67.20
21335;DHT22;10826;52.536;13.432;2023-04-15T13:26:20;13.90;67.50
21335;DHT22;10826;52.536;13.432;2023-04-15T13:29:09;13.80;67.40
21335;DHT22;10826;52.536;13.432;2023-04-15T13:31:56;13.80;67.80
21335;DHT22;10826;52.536;13.432;2023-04-15T13:34:42;13.80;67.80
21335;DHT22;10826;52.536;13.432;2023-04-15T13:37:29;13.70;67.80
21335;DHT22;10826;52.536;13.432;2023-04-15T13:40:19;13.70;67.90
21335;DHT22;10826;52.536;13.432;2023-04-15T13:43:08;13.60;68.00
21335;DHT22;10826;52.536;13.432;2023-04-15T13:45:58;13.60;68.00
21335;DHT22;10826;52.536;13.432;2023-04-15T13:48:44;13.60;68.80
21335;DHT22;10826;52.536;13.432;2023-04-15T13:51:32;13.60;68.30
21335;DHT22;10826;52.536;13.432;2023-04-15T13:54:20;13.60;68.10
21335;DHT22;10826;52.536;13.432;2023-04-15T13:57:06;13.60;68.20
21335;DHT22;10826;52.536;13.432;2023-04-15T13:59:53;13.60;68.20
21335;DHT22;10826;52.536;13.432;2023-04-15T14:02:39;13.50;68.50
21335;DHT22;10826;52.536;13.432;2023-04-15T14:05:32;13.50;68.70
21335;DHT22;10826;52.536;13.432;2023-04-15T14:08:23;13.40;68.70
21335;DHT22;10826;52.536;13.432;2023-04-15T14:11:12;13.50;68.60
21335;DHT22;10826;52.536;13.432;2023-04-15T14:13:58;13.50;68.50
21335;DHT22;10826;52.536;13.432;2023-04-15T14:16:44;13.50;68.50
21335;DHT22;10826;52.536;13.432;2023-04-15T14:19:34;13.50;68.70
21335;DHT22;10826;52.536;13.432;2023-04-15T14:22:20;13.50;68.70
21335;DHT22;10826;52.536;13.432;2023-04-15T14:25:07;13.50;68.70
21335;DHT22;10826;52.536;13.432;2023-04-15T14:27:53;13.50;68.70
21335;DHT22;10826;52.536;13.432;2023-04-15T14:30:42;13.50;68.70
21335;DHT22;10826;52.536;13.432;2023-04-15T14:33:28;13.50;68.70
21335;DHT22;10826;52.536;13.432;2023-04-15T14:36:14;13.50;68.90
21335;DHT22;10826;52.536;13.432;2023-04-15T14:39:00;13.50;68.80
21335;DHT22;10826;52.536;13.432;2023-04-15T14:41:47;13.50;68.70
21335;DHT22;10826;52.536;13.432;2023-04-15T14:44:34;13.60;68.80
21335;DHT22;10826;52.536;13.432;2023-04-15T14:47:20;13.50;69.00
21335;DHT22;10826;52.536;13.432;2023-04-15T14:50:22;13.40;68.80
21335;DHT22;10826;52.536;13.432;2023-04-15T14:53:12;13.40;68.70
21335;DHT22;10826;52.536;13.432;2023-04-15T14:55:58;13.40;69.20
21335;DHT22;10826;52.536;13.432;2023-04-15T14:58:47;13.40;69.50
21335;DHT22;10826;52.536;13.432;2023-04-15T15:01:37;13.30;69.50
21335;DHT22;10826;52.536;13.432;2023-04-15T15:04:25;13.30;69.50
21335;DHT22;10826;52.536;13.432;2023-04-15T15:07:12;13.40;69.50
21335;DHT22;10826;52.536;13.432;2023-04-15T15:10:00;13.40;69.50
21335;DHT22;10826;52.536;13.432;2023-04-15T15:12:48;13.40;69.60
21335;DHT22;10826;52.536;13.432;2023-04-15T15:15:35;13.40;69.60
21335;DHT22;10826;52.536;13.432;2023-04-15T15:18:22;13.40;69.60
21335;DHT22;10826;52.536;13.432;2023-04-15T15:21:10;13.40;69.80
21335;DHT22;10826;52.536;13.432;2023-04-15T15:23:58;13.40;69.80
21335;DHT22;10826;52.536;13.432;2023-04-15T15:26:44;13.40;70.40
21335;DHT22;10826;52.536;13.432;2023-04-15T15:29:31;13.40;69.80
21335;DHT22;10826;52.536;13.432;2023-04-15T15:32:16;13.40;69.80
21335;DHT22;10826;52.536;13.432;2023-04-15T15:35:02;13.40;69.70
21335;DHT22;10826;52.536;13.432;2023-04-15T15:37:49;13.40;69.80
21335;DHT22;10826;52.536;13.432;2023-04-15T15:40:35;13.40;69.80
21335;DHT22;10826;52.536;13.432;2023-04-15T15:43:20;13.40;69.90
21335;DHT22;10826;52.536;13.432;2023-04-15T15:46:07;13.40;70.00
21335;DHT22;10826;52.536;13.432;2023-04-15T15:48:53;13.40;70.00
21335;DHT22;10826;52.536;13.432;2023-04-15T15:51:39;13.40;70.10
21335;DHT22;10826;52.536;13.432;2023-04-15T15:54:25;13.40;70.00
21335;DHT22;10826;52.536;13.432;2023-04-15T15:57:11;13.50;70.00
21335;DHT22;10826;52.536;13.432;2023-04-15T15:59:57;13.40;69.80
21335;DHT22;10826;52.536;13.432;2023-04-15T16:02:43;13.40;69.80
21335;DHT22;10826;52.536;13.432;2023-04-15T16:05:30;13.40;69.80
21335;DHT22;10826;52.536;13.432;2023-04-15T16:08:16;13.40;69.80
21335;DHT22;10826;52.536;13.432;2023-04-15T16:11:02;13.40;69.80
21335;DHT22;10826;52.536;13.432;2023-04-15T16:13:48;13.40;69.80
21335;DHT22;10826;52.536;13.432;2023-04-15T16:16:34;13.40;69.70
21335;DHT22;10826;52.536;13.432;2023-04-15T16:19:20;13.40;69.70
21335;DHT22;10826;52.536;13.432;2023-04-15T16:22:07;13.40;69.60
21335;DHT22;10826;52.536;13.432;2023-04-15T16:24:53;13.30;69.60
21335;DHT22;10826;52.536;13.432;2023-04-15T16:27:39;13.30;69.50
21335;DHT22;10826;52.536;13.432;2023-04-15T16:30:25;13.30;69.70
21335;DHT22;10826;52.536;13.432;2023-04-15T16:33:11;13.30;69.70
21335;DHT22;10826;52.536;13.432;2023-04-15T16:35:57;13.20;69.70
21335;DHT22;10826;52.536;13.432;2023-04-15T16:38:49;13.20;69.70
21335;DHT22;10826;52.536;13.432;2023-04-15T16:41:36;13.30;69.90
21335;DHT22;10826;52.536;13.432;2023-04-15T16:44:23;13.20;69.70
21335;DHT22;10826;52.536;13.432;2023-04-15T16:47:10;13.20;69.80
21335;DHT22;10826;52.536;13.432;2023-04-15T16:49:56;13.20;69.90
21335;DHT22;10826;52.536;13.432;2023-04-15T16:52:43;13.20;69.90
21335;DHT22;10826;52.536;13.432;2023-04-15T16:55:30;13.20;70.70
21335;DHT22;10826;52.536;13.432;2023-04-15T16:58:18;13.20;69.90
21335;DHT22;10826;52.536;13.432;2023-04-15T17:01:07;13.20;70.00
21335;DHT22;10826;52.536;13.432;2023-04-15T17:03:53;13.10;70.00
21335;DHT22;10826;52.536;13.432;2023-04-15T17:06:40;13.10;70.00
21335;DHT22;10826;52.536;13.432;2023-04-15T17:09:26;13.10;70.10
21335;DHT22;10826;52.536;13.432;2023-04-15T17:12:12;13.10;70.30
21335;DHT22;10826;52.536;13.432;2023-04-15T17:14:58;13.10;70.30
21335;DHT22;10826;52.536;13.432;2023-04-15T17:17:44;13.10;70.30
21335;DHT22;10826;52.536;13.432;2023-04-15T17:20:30;13.10;70.40
21335;DHT22;10826;52.536;13.432;2023-04-15T17:23:16;13.00;70.30
21335;DHT22;10826;52.536;13.432;2023-04-15T17:26:02;13.00;70.20
21335;DHT22;10826;52.536;13.432;2023-04-15T17:28:48;13.00;70.20